createdAt,value
2022-12-27T00:00:40.020Z,97991.71
2022-12-27T00:04:02.822Z,97991.48
2022-12-27T00:07:06.726Z,97991.48
2022-12-27T00:10:12.584Z,97984.13
2022-12-27T00:13:15.760Z,97987.57
2022-12-27T00:16:21.104Z,97987.64
2022-12-27T00:19:24.394Z,97982.09
2022-12-27T00:22:27.566Z,97967.69
2022-12-27T00:25:30.760Z,97966.73
2022-12-27T00:28:35.201Z,97968.23
2022-12-27T00:31:40.263Z,97969.48
2022-12-27T00:34:43.555Z,97977.31
2022-12-27T00:37:46.750Z,97983.89
2022-12-27T00:40:50.008Z,97990.55
2022-12-27T00:43:53.584Z,98000.11
2022-12-27T00:46:56.869Z,98004.10
2022-12-27T00:50:00.146Z,98002.06
2022-12-27T00:53:03.705Z,98003.39
2022-12-27T00:56:18.257Z,98005.42
2022-12-27T00:59:21.588Z,98017.94
2022-12-27T01:02:26.127Z,98028.58
2022-12-27T01:05:29.454Z,98038.66
2022-12-27T01:08:32.748Z,98053.84
2022-12-27T01:11:36.009Z,98060.23
2022-12-27T01:14:39.191Z,98055.99
2022-12-27T01:17:42.718Z,98045.03
2022-12-27T01:20:45.934Z,98037.28
2022-12-27T01:23:50.164Z,98032.11
2022-12-27T01:26:53.400Z,98026.95
2022-12-27T01:29:56.636Z,98030.57
2022-12-27T01:32:59.828Z,98031.19
2022-12-27T01:36:10.035Z,98039.89
2022-12-27T01:39:13.960Z,98043.20
2022-12-27T01:42:37.185Z,98039.67
2022-12-27T01:45:40.599Z,98043.73
2022-12-27T01:48:45.100Z,98049.61
2022-12-27T01:51:48.299Z,98059.48
2022-12-27T01:54:53.332Z,98062.13
2022-12-27T01:58:03.219Z,98068.55
2022-12-27T02:01:12.411Z,98074.05
2022-12-27T02:04:19.270Z,98080.63
2022-12-27T02:07:30.125Z,98082.27
2022-12-27T02:10:34.742Z,98083.14
2022-12-27T02:13:42.429Z,98085.72
2022-12-27T02:16:47.030Z,98084.54
2022-12-27T02:20:10.947Z,98083.14
2022-12-27T02:23:51.634Z,98076.23
2022-12-27T02:27:07.925Z,98082.42
2022-12-27T02:30:13.459Z,98084.77
2022-12-27T02:33:22.433Z,98087.50
2022-12-27T02:36:30.356Z,98096.27
2022-12-27T02:39:37.839Z,98108.17
2022-12-27T02:42:59.388Z,98118.02
2022-12-27T02:46:41.234Z,98121.60
2022-12-27T02:50:02.806Z,98125.48
2022-12-27T02:53:47.298Z,98126.92
2022-12-27T02:57:13.912Z,98132.36
2022-12-27T03:00:42.334Z,98137.98
2022-12-27T03:03:51.143Z,98147.42
2022-12-27T03:07:12.439Z,98153.02
2022-12-27T03:10:43.443Z,98156.75
2022-12-27T03:14:42.065Z,98165.23
2022-12-27T03:17:53.355Z,98168.77
2022-12-27T03:21:18.353Z,98177.52
2022-12-27T03:24:45.277Z,98187.95
2022-12-27T03:28:09.467Z,98191.16
2022-12-27T03:31:36.983Z,98193.44
2022-12-27T03:34:45.812Z,98207.74
2022-12-27T03:38:04.007Z,98213.40
2022-12-27T03:41:27.930Z,98218.05
2022-12-27T03:44:31.274Z,98229.67
2022-12-27T03:47:43.013Z,98231.92
2022-12-27T03:50:57.184Z,98233.95
2022-12-27T03:54:07.330Z,98239.02
2022-12-27T03:57:19.774Z,98241.69
2022-12-27T04:00:22.794Z,98248.27
2022-12-27T04:03:26.393Z,98257.60
2022-12-27T04:06:29.753Z,98263.48
2022-12-27T04:09:51.614Z,98273.67
2022-12-27T04:13:13.376Z,98277.23
2022-12-27T04:16:35.129Z,98287.60
2022-12-27T04:19:56.852Z,98294.48
2022-12-27T04:23:18.592Z,98293.11
2022-12-27T04:26:40.295Z,98306.42
2022-12-27T04:30:02.151Z,98318.31
2022-12-27T04:33:24.072Z,98317.36
2022-12-27T04:36:27.310Z,98320.14
2022-12-27T04:39:30.563Z,98324.73
2022-12-27T04:42:52.651Z,98316.64
2022-12-27T04:46:14.449Z,98325.46
2022-12-27T04:49:45.442Z,98321.39
2022-12-27T04:53:07.299Z,98330.84
2022-12-27T04:56:10.500Z,98340.02
2022-12-27T04:59:32.535Z,98367.42
2022-12-27T05:02:36.411Z,98374.34
2022-12-27T05:05:42.054Z,98381.99
2022-12-27T05:09:03.767Z,98392.59
2022-12-27T05:12:28.156Z,98404.41
2022-12-27T05:15:31.372Z,98416.37
2022-12-27T05:18:34.542Z,98425.69
2022-12-27T05:21:38.767Z,98435.21
2022-12-27T05:25:00.433Z,98443.45
2022-12-27T05:28:06.318Z,98454.42
2022-12-27T05:31:10.085Z,98459.48
2022-12-27T05:34:13.366Z,98461.81
2022-12-27T05:37:16.535Z,98465.30
2022-12-27T05:40:19.763Z,98472.96
2022-12-27T05:43:22.928Z,98474.81
2022-12-27T05:46:26.117Z,98472.12
2022-12-27T05:49:29.476Z,98480.59
2022-12-27T05:52:37.571Z,98483.59
2022-12-27T05:55:43.979Z,98490.48
2022-12-27T05:58:47.820Z,98493.38
2022-12-27T06:01:51.907Z,98492.63
2022-12-27T06:04:55.243Z,98490.52
2022-12-27T06:07:58.748Z,98485.11
2022-12-27T06:11:13.905Z,98491.59
2022-12-27T06:14:17.144Z,98499.91
2022-12-27T06:17:20.355Z,98508.02
2022-12-27T06:20:23.593Z,98517.48
2022-12-27T06:23:26.778Z,98530.67
2022-12-27T06:26:30.497Z,98536.88
2022-12-27T06:29:34.385Z,98544.17
2022-12-27T06:32:37.662Z,98557.05
2022-12-27T06:35:40.857Z,98568.82
2022-12-27T06:38:44.270Z,98573.27
2022-12-27T06:41:47.511Z,98576.11
2022-12-27T06:44:50.698Z,98579.98
2022-12-27T06:47:53.923Z,98588.11
2022-12-27T06:50:57.371Z,98599.45
2022-12-27T06:54:00.618Z,98614.60
2022-12-27T06:57:03.847Z,98626.71
2022-12-27T07:00:08.078Z,98638.11
2022-12-27T07:03:11.421Z,98648.11
2022-12-27T07:06:14.723Z,98651.67
2022-12-27T07:09:18.169Z,98660.95
2022-12-27T07:12:23.025Z,98664.19
2022-12-27T07:15:26.254Z,98673.43
2022-12-27T07:18:32.996Z,98679.61
2022-12-27T07:21:37.260Z,98685.67
2022-12-27T07:24:40.509Z,98691.48
2022-12-27T07:27:43.751Z,98696.76
2022-12-27T07:30:46.956Z,98702.52
2022-12-27T07:33:50.726Z,98713.58
2022-12-27T07:36:53.955Z,98714.30
2022-12-27T07:39:57.162Z,98716.66
2022-12-27T07:43:00.465Z,98719.20
2022-12-27T07:46:25.561Z,98722.23
2022-12-27T07:49:28.864Z,98729.14
2022-12-27T07:52:33.644Z,98733.27
2022-12-27T07:55:36.917Z,98734.36
2022-12-27T07:58:42.878Z,98740.13
2022-12-27T08:02:04.770Z,98748.51
2022-12-27T08:05:08.884Z,98752.90
2022-12-27T08:08:16.001Z,98752.08
2022-12-27T08:11:20.431Z,98757.46
2022-12-27T08:14:23.755Z,98762.67
2022-12-27T08:17:28.027Z,98767.20
2022-12-27T08:20:31.599Z,98770.69
2022-12-27T08:23:34.835Z,98779.79
2022-12-27T08:26:38.129Z,98784.71
2022-12-27T08:29:41.396Z,98785.33
2022-12-27T08:32:44.620Z,98781.79
2022-12-27T08:35:53.137Z,98782.64
2022-12-27T08:38:56.653Z,98782.50
2022-12-27T08:41:59.931Z,98790.35
2022-12-27T08:45:03.604Z,98793.85
2022-12-27T08:48:07.716Z,98794.00
2022-12-27T08:51:13.860Z,98801.02
2022-12-27T08:54:19.674Z,98802.63
2022-12-27T08:57:22.977Z,98806.92
2022-12-27T09:00:27.492Z,98808.11
2022-12-27T09:03:31.418Z,98818.58
2022-12-27T09:06:34.727Z,98831.84
2022-12-27T09:09:38.127Z,98833.04
2022-12-27T09:12:41.680Z,98834.92
2022-12-27T09:15:45.222Z,98832.08
2022-12-27T09:18:53.882Z,98828.33
2022-12-27T09:21:57.140Z,98831.00
2022-12-27T09:25:00.409Z,98830.88
2022-12-27T09:28:04.045Z,98838.15
2022-12-27T09:31:09.730Z,98839.07
2022-12-27T09:34:13.155Z,98839.30
2022-12-27T09:37:17.891Z,98843.06
2022-12-27T09:40:21.509Z,98846.80
2022-12-27T09:43:54.138Z,98846.25
2022-12-27T09:47:27.132Z,98838.64
2022-12-27T09:50:54.955Z,98842.04
2022-12-27T09:54:37.422Z,98840.24
2022-12-27T09:57:43.077Z,98838.23
2022-12-27T10:00:46.720Z,98837.51
2022-12-27T10:03:56.564Z,98836.15
2022-12-27T10:07:25.747Z,98842.27
2022-12-27T10:10:50.469Z,98842.86
2022-12-27T10:14:01.591Z,98846.60
2022-12-27T10:18:10.403Z,98840.45
2022-12-27T10:21:27.659Z,98835.85
2022-12-27T10:24:47.824Z,98831.81
2022-12-27T10:27:58.645Z,98837.52
2022-12-27T10:31:04.018Z,98836.92
2022-12-27T10:34:15.162Z,98836.55
2022-12-27T10:37:21.502Z,98835.91
2022-12-27T10:40:35.762Z,98842.21
2022-12-27T10:43:42.475Z,98845.02
2022-12-27T10:46:52.190Z,98843.02
2022-12-27T10:50:11.704Z,98850.66
2022-12-27T10:53:41.232Z,98847.92
2022-12-27T10:56:45.045Z,98842.66
2022-12-27T11:00:14.428Z,98848.14
2022-12-27T11:03:19.277Z,98844.75
2022-12-27T11:06:26.242Z,98847.77
2022-12-27T11:09:37.424Z,98852.38
2022-12-27T11:12:55.981Z,98852.47
2022-12-27T11:15:59.440Z,98853.42
2022-12-27T11:19:04.353Z,98844.52
2022-12-27T11:22:09.475Z,98845.28
2022-12-27T11:25:14.993Z,98844.27
2022-12-27T11:28:55.801Z,98833.54
2022-12-27T11:32:08.116Z,98837.59
2022-12-27T11:35:22.204Z,98834.56
2022-12-27T11:38:29.462Z,98837.25
2022-12-27T11:41:52.238Z,98845.45
2022-12-27T11:48:28.735Z,98842.84
2022-12-27T11:51:40.211Z,98847.41
2022-12-27T11:55:21.599Z,98850.94
2022-12-27T11:58:24.909Z,98853.55
2022-12-27T12:01:57.018Z,98856.94
2022-12-27T12:05:15.606Z,98866.48
2022-12-27T12:09:23.988Z,98864.89
2022-12-27T12:13:06.180Z,98864.36
2022-12-27T12:16:18.225Z,98854.25
2022-12-27T12:19:21.606Z,98854.73
2022-12-27T12:36:26.437Z,98851.21
2022-12-27T12:43:12.436Z,98854.56
2022-12-27T12:46:24.660Z,98851.58
2022-12-27T12:50:06.565Z,98852.92
2022-12-27T12:53:29.433Z,98852.36
2022-12-27T12:56:32.999Z,98858.60
2022-12-27T12:59:45.071Z,98865.55
2022-12-27T13:03:22.407Z,98866.58
2022-12-27T13:06:28.329Z,98871.73
2022-12-27T13:10:07.043Z,98879.80
2022-12-27T13:13:26.589Z,98881.36
2022-12-27T13:17:13.839Z,98884.42
2022-12-27T13:20:48.780Z,98882.73
2022-12-27T13:24:02.103Z,98880.96
2022-12-27T13:27:11.453Z,98883.91
2022-12-27T13:30:24.433Z,98877.66
2022-12-27T13:34:08.467Z,98883.44
2022-12-27T13:37:24.376Z,98882.61
2022-12-27T13:40:59.716Z,98887.88
2022-12-27T13:44:46.518Z,98893.30
2022-12-27T13:48:23.845Z,98892.89
2022-12-27T13:59:49.870Z,98901.83
2022-12-27T14:03:03.704Z,98903.98
2022-12-27T14:06:55.946Z,98904.76
2022-12-27T14:11:31.966Z,98913.58
2022-12-27T14:15:43.713Z,98921.97
2022-12-27T14:19:21.967Z,98923.95
2022-12-27T14:22:56.611Z,98928.31
2022-12-27T14:27:17.265Z,98928.11
2022-12-27T14:30:32.802Z,98924.32
2022-12-27T14:34:37.404Z,98927.23
2022-12-27T14:38:14.298Z,98938.77
2022-12-27T14:41:20.333Z,98942.55
2022-12-27T14:44:59.921Z,98946.98
2022-12-27T14:48:34.858Z,98948.45
2022-12-27T14:52:42.666Z,98944.35
2022-12-27T14:56:07.502Z,98946.26
2022-12-27T14:59:13.405Z,98949.65
2022-12-27T15:02:45.436Z,98960.58
2022-12-27T15:05:55.574Z,98973.87
2022-12-27T15:09:32.195Z,98984.13
2022-12-27T15:13:00.531Z,98973.59
2022-12-27T15:16:16.011Z,98980.41
2022-12-27T15:19:49.601Z,98986.60
2022-12-27T15:23:05.092Z,98983.77
2022-12-27T15:26:17.949Z,98979.24
2022-12-27T15:29:53.455Z,98975.75
2022-12-27T15:33:02.482Z,98974.62
2022-12-27T15:36:21.098Z,98970.14
2022-12-27T15:39:33.374Z,98971.67
2022-12-27T15:42:54.178Z,98971.73
2022-12-27T15:46:00.304Z,98972.17
2022-12-27T15:49:15.350Z,98972.10
2022-12-27T15:52:36.657Z,98975.67
2022-12-27T15:56:27.116Z,98981.86
2022-12-27T15:59:36.776Z,98976.54
2022-12-27T16:02:49.529Z,98979.94
2022-12-27T16:05:54.221Z,98981.93
2022-12-27T16:09:22.106Z,98980.77
2022-12-27T16:12:39.812Z,98982.92
2022-12-27T16:15:50.065Z,98979.84
2022-12-27T16:28:32.543Z,98981.06
2022-12-27T16:35:32.940Z,98985.09
2022-12-27T16:39:10.236Z,98986.72
2022-12-27T16:42:27.011Z,98987.98
2022-12-27T16:45:39.334Z,98992.60
2022-12-27T16:49:08.595Z,99000.01
2022-12-27T16:57:26.939Z,99003.60
2022-12-27T17:05:15.351Z,99008.44
2022-12-27T17:08:31.131Z,99002.61
2022-12-27T17:12:11.282Z,99000.09
2022-12-27T17:15:24.824Z,99005.41
2022-12-27T17:23:44.672Z,99005.83
2022-12-27T17:42:40.941Z,99025.02
2022-12-27T17:45:54.912Z,99029.34
2022-12-27T17:48:58.906Z,99029.59
2022-12-27T17:52:21.237Z,99039.23
2022-12-27T17:55:53.725Z,99036.98
2022-12-27T17:59:09.271Z,99043.52
2022-12-27T18:02:12.609Z,99046.77
2022-12-27T18:05:22.040Z,99049.45
2022-12-27T18:08:36.168Z,99050.86
2022-12-27T18:11:41.802Z,99054.58
2022-12-27T18:14:51.643Z,99051.76
2022-12-27T18:18:05.955Z,99055.22
2022-12-27T18:21:22.964Z,99053.41
2022-12-27T18:24:30.112Z,99054.04
2022-12-27T18:27:33.316Z,99056.66
2022-12-27T18:30:42.708Z,99061.16
2022-12-27T18:34:07.721Z,99066.73
2022-12-27T18:37:19.343Z,99064.16
2022-12-27T18:40:25.915Z,99071.61
2022-12-27T18:43:29.722Z,99076.94
2022-12-27T18:46:37.260Z,99084.98
2022-12-27T18:49:40.644Z,99084.13
2022-12-27T18:52:49.620Z,99088.64
2022-12-27T18:56:05.206Z,99086.73
2022-12-27T18:59:17.881Z,99093.70
2022-12-27T19:02:37.196Z,99094.16
2022-12-27T19:05:40.708Z,99083.11
2022-12-27T19:08:53.162Z,99078.30
2022-12-27T19:11:59.408Z,99074.37
2022-12-27T19:15:04.341Z,99072.61
2022-12-27T19:18:31.125Z,99071.41
2022-12-27T19:21:37.591Z,99073.52
2022-12-27T19:24:40.869Z,99066.58
2022-12-27T19:28:01.090Z,99068.93
2022-12-27T19:31:21.766Z,99077.39
2022-12-27T19:34:29.067Z,99082.31
2022-12-27T19:37:33.737Z,99086.31
2022-12-27T19:40:37.016Z,99084.37
2022-12-27T19:43:45.848Z,99084.85
2022-12-27T19:46:49.221Z,99081.09
2022-12-27T19:49:53.202Z,99081.64
2022-12-27T19:52:57.174Z,99082.20
2022-12-27T19:56:02.017Z,99085.85
2022-12-27T19:59:05.215Z,99094.98
2022-12-27T20:02:09.096Z,99099.05
2022-12-27T20:05:12.917Z,99100.52
2022-12-27T20:08:33.728Z,99103.33
2022-12-27T20:11:37.425Z,99102.69
2022-12-27T20:14:41.343Z,99104.73
2022-12-27T20:17:45.392Z,99107.20
2022-12-27T20:21:20.393Z,99107.39
2022-12-27T20:24:23.694Z,99107.65
2022-12-27T20:27:27.354Z,99115.63
2022-12-27T20:30:31.299Z,99110.70
2022-12-27T20:33:35.011Z,99110.61
2022-12-27T20:36:38.800Z,99109.16
2022-12-27T20:39:42.070Z,99109.47
2022-12-27T20:42:45.626Z,99111.59
2022-12-27T20:45:48.991Z,99111.79
2022-12-27T20:48:53.898Z,99116.52
2022-12-27T20:51:57.231Z,99120.80
2022-12-27T20:55:00.610Z,99122.03
2022-12-27T20:58:04.429Z,99122.74
2022-12-27T21:01:15.730Z,99113.35
2022-12-27T21:04:19.346Z,99117.66
2022-12-27T21:07:22.808Z,99117.45
2022-12-27T21:10:39.996Z,99122.00
2022-12-27T21:13:45.500Z,99125.56
2022-12-27T21:16:49.054Z,99129.00
2022-12-27T21:19:52.671Z,99129.88
2022-12-27T21:22:56.054Z,99134.80
2022-12-27T21:26:25.059Z,99136.52
2022-12-27T21:29:28.510Z,99138.05
2022-12-27T21:32:31.745Z,99134.72
2022-12-27T21:35:34.940Z,99136.20
2022-12-27T21:38:38.234Z,99132.21
2022-12-27T21:41:41.583Z,99133.25
2022-12-27T21:44:44.811Z,99129.20
2022-12-27T21:47:47.996Z,99123.44
2022-12-27T21:50:51.291Z,99125.79
2022-12-27T21:53:55.255Z,99124.48
2022-12-27T21:56:58.423Z,99123.20
2022-12-27T22:00:02.057Z,99122.25
2022-12-27T22:03:08.161Z,99120.80
2022-12-27T22:06:17.685Z,99115.42
2022-12-27T22:09:21.006Z,99112.48
2022-12-27T22:12:24.309Z,99116.27
2022-12-27T22:15:27.595Z,99117.02
2022-12-27T22:18:32.557Z,99118.15
2022-12-27T22:21:37.388Z,99114.64
2022-12-27T22:24:41.084Z,99117.90
2022-12-27T22:27:44.338Z,99116.56
2022-12-27T22:30:47.534Z,99111.55
2022-12-27T22:33:51.815Z,99116.65
2022-12-27T22:36:55.040Z,99114.02
2022-12-27T22:39:58.331Z,99117.11
2022-12-27T22:43:01.720Z,99114.80
2022-12-27T22:46:07.273Z,99107.63
2022-12-27T22:49:10.517Z,99105.30
2022-12-27T22:52:13.797Z,99102.36
2022-12-27T22:55:17.213Z,99103.29
2022-12-27T22:58:20.456Z,99105.02
2022-12-27T23:01:27.978Z,99104.27
2022-12-27T23:04:31.470Z,99107.28
2022-12-27T23:08:04.156Z,99112.66
2022-12-27T23:11:11.475Z,99114.33
2022-12-27T23:14:16.542Z,99114.89
2022-12-27T23:17:19.797Z,99108.95
2022-12-27T23:20:22.992Z,99109.59
2022-12-27T23:23:26.613Z,99107.30
2022-12-27T23:26:29.956Z,99105.21
2022-12-27T23:29:33.151Z,99101.85
2022-12-27T23:32:36.425Z,99095.27
2022-12-27T23:35:39.641Z,99091.45
2022-12-27T23:38:43.582Z,99089.15
2022-12-27T23:41:46.784Z,99086.98
2022-12-27T23:44:50.640Z,99083.95
2022-12-27T23:47:53.821Z,99080.52
2022-12-27T23:50:56.996Z,99075.30
2022-12-27T23:54:00.299Z,99076.16
2022-12-27T23:57:20.377Z,99078.40
